sensor_id;sensor_type;location;lat;lon;timestamp;P1;durP1;ratioP1;P2;durP2;ratioP2
35522;SDS011;61478;50.820;4.330;2023-04-01T00:01:53;14.20;;;3.53;;
35522;SDS011;61478;50.820;4.330;2023-04-01T00:04:19;18.85;;;4.38;;
35522;SDS011;61478;50.820;4.330;2023-04-01T00:06:45;15.57;;;4.03;;
35522;SDS011;61478;50.820;4.330;2023-04-01T00:09:13;17.02;;;4.53;;
35522;SDS011;61478;50.820;4.330;2023-04-01T00:11:42;15.55;;;3.45;;
35522;SDS011;61478;50.820;4.330;2023-04-01T00:14:10;14.68;;;4.25;;
35522;SDS011;61478;50.820;4.330;2023-04-01T00:16:36;20.02;;;4.63;;
35522;SDS011;61478;50.820;4.330;2023-04-01T00:19:03;17.05;;;4.80;;
35522;SDS011;61478;50.820;4.330;2023-04-01T00:21:29;13.90;;;3.85;;
35522;SDS011;61478;50.820;4.330;2023-04-01T00:23:55;9.20;;;3.35;;
35522;SDS011;61478;50.820;4.330;2023-04-01T00:26:21;10.32;;;3.67;;
35522;SDS011;61478;50.820;4.330;2023-04-01T00:28:47;13.15;;;3.72;;
35522;SDS011;61478;50.820;4.330;2023-04-01T00:31:13;15.98;;;4.50;;
35522;SDS011;61478;50.820;4.330;2023-04-01T00:33:39;15.00;;;4.05;;
35522;SDS011;61478;50.820;4.330;2023-04-01T00:36:07;18.63;;;4.78;;
35522;SDS011;61478;50.820;4.330;2023-04-01T00:38:40;14.68;;;3.53;;
35522;SDS011;61478;50.820;4.330;2023-04-01T00:41:07;12.52;;;4.05;;
35522;SDS011;61478;50.820;4.330;2023-04-01T00:43:39;10.20;;;3.05;;
35522;SDS011;61478;50.820;4.330;2023-04-01T00:46:05;13.48;;;3.45;;
35522;SDS011;61478;50.820;4.330;2023-04-01T00:48:33;10.55;;;2.85;;
35522;SDS011;61478;50.820;4.330;2023-04-01T00:51:06;9.60;;;3.10;;
35522;SDS011;61478;50.820;4.330;2023-04-01T00:53:40;9.93;;;2.80;;
35522;SDS011;61478;50.820;4.330;2023-04-01T00:56:11;6.68;;;2.70;;
35522;SDS011;61478;50.820;4.330;2023-04-01T00:58:43;8.93;;;2.75;;
35522;SDS011;61478;50.820;4.330;2023-04-01T01:01:13;11.52;;;3.30;;
35522;SDS011;61478;50.820;4.330;2023-04-01T01:03:40;10.68;;;2.92;;
35522;SDS011;61478;50.820;4.330;2023-04-01T01:06:10;11.80;;;3.10;;
35522;SDS011;61478;50.820;4.330;2023-04-01T01:11:14;10.77;;;2.78;;
35522;SDS011;61478;50.820;4.330;2023-04-01T01:13:58;8.80;;;1.98;;
35522;SDS011;61478;50.820;4.330;2023-04-01T01:27:00;9.48;;;2.63;;
35522;SDS011;61478;50.820;4.330;2023-04-01T01:38:00;5.72;;;1.80;;
35522;SDS011;61478;50.820;4.330;2023-04-01T01:40:29;7.75;;;1.90;;
35522;SDS011;61478;50.820;4.330;2023-04-01T01:42:59;7.75;;;2.63;;
35522;SDS011;61478;50.820;4.330;2023-04-01T01:45:30;8.02;;;2.58;;
35522;SDS011;61478;50.820;4.330;2023-04-01T01:48:00;8.02;;;3.00;;
35522;SDS011;61478;50.820;4.330;2023-04-01T01:50:28;8.82;;;3.13;;
35522;SDS011;61478;50.820;4.330;2023-04-01T01:53:05;8.18;;;2.80;;
35522;SDS011;61478;50.820;4.330;2023-04-01T01:55:33;7.28;;;2.60;;
35522;SDS011;61478;50.820;4.330;2023-04-01T01:58:10;9.40;;;3.47;;
35522;SDS011;61478;50.820;4.330;2023-04-01T02:00:55;6.97;;;3.20;;
35522;SDS011;61478;50.820;4.330;2023-04-01T02:03:28;11.02;;;3.88;;
35522;SDS011;61478;50.820;4.330;2023-04-01T02:05:58;11.95;;;4.20;;
35522;SDS011;61478;50.820;4.330;2023-04-01T02:08:34;10.27;;;4.72;;
35522;SDS011;61478;50.820;4.330;2023-04-01T02:11:09;11.05;;;4.53;;
35522;SDS011;61478;50.820;4.330;2023-04-01T02:16:08;9.32;;;3.97;;
35522;SDS011;61478;50.820;4.330;2023-04-01T02:18:38;10.55;;;3.90;;
35522;SDS011;61478;50.820;4.330;2023-04-01T02:21:06;9.60;;;3.85;;
35522;SDS011;61478;50.820;4.330;2023-04-01T02:23:34;13.77;;;3.92;;
35522;SDS011;61478;50.820;4.330;2023-04-01T02:26:02;17.88;;;3.97;;
35522;SDS011;61478;50.820;4.330;2023-04-01T02:28:31;10.27;;;3.85;;
35522;SDS011;61478;50.820;4.330;2023-04-01T02:30:59;9.82;;;3.85;;
35522;SDS011;61478;50.820;4.330;2023-04-01T02:33:27;8.85;;;3.88;;
35522;SDS011;61478;50.820;4.330;2023-04-01T02:35:54;9.82;;;3.50;;
35522;SDS011;61478;50.820;4.330;2023-04-01T02:38:21;11.63;;;3.85;;
35522;SDS011;61478;50.820;4.330;2023-04-01T02:40:50;13.95;;;4.93;;
35522;SDS011;61478;50.820;4.330;2023-04-01T02:43:22;15.40;;;4.55;;
35522;SDS011;61478;50.820;4.330;2023-04-01T02:45:52;9.88;;;3.95;;
35522;SDS011;61478;50.820;4.330;2023-04-01T02:48:19;11.45;;;3.83;;
35522;SDS011;61478;50.820;4.330;2023-04-01T02:50:45;11.95;;;4.00;;
35522;SDS011;61478;50.820;4.330;2023-04-01T02:53:11;9.73;;;3.85;;
35522;SDS011;61478;50.820;4.330;2023-04-01T02:55:37;12.68;;;4.20;;
35522;SDS011;61478;50.820;4.330;2023-04-01T02:58:03;12.27;;;4.10;;
35522;SDS011;61478;50.820;4.330;2023-04-01T03:00:30;18.25;;;4.90;;
35522;SDS011;61478;50.820;4.330;2023-04-01T03:02:56;13.50;;;4.60;;
35522;SDS011;61478;50.820;4.330;2023-04-01T03:05:22;11.82;;;5.40;;
35522;SDS011;61478;50.820;4.330;2023-04-01T03:07:49;17.30;;;5.82;;
35522;SDS011;61478;50.820;4.330;2023-04-01T03:10:15;18.45;;;5.55;;
35522;SDS011;61478;50.820;4.330;2023-04-01T03:12:41;13.98;;;5.95;;
35522;SDS011;61478;50.820;4.330;2023-04-01T03:15:08;13.73;;;5.82;;
35522;SDS011;61478;50.820;4.330;2023-04-01T03:17:36;15.23;;;6.05;;
35522;SDS011;61478;50.820;4.330;2023-04-01T03:20:03;11.93;;;5.68;;
35522;SDS011;61478;50.820;4.330;2023-04-01T03:22:32;11.82;;;5.70;;
35522;SDS011;61478;50.820;4.330;2023-04-01T03:24:58;11.93;;;6.53;;
35522;SDS011;61478;50.820;4.330;2023-04-01T03:27:24;13.88;;;6.40;;
35522;SDS011;61478;50.820;4.330;2023-04-01T03:29:50;12.02;;;6.30;;
35522;SDS011;61478;50.820;4.330;2023-04-01T03:32:16;12.50;;;6.35;;
35522;SDS011;61478;50.820;4.330;2023-04-01T03:34:42;11.52;;;6.65;;
35522;SDS011;61478;50.820;4.330;2023-04-01T03:37:08;16.58;;;6.78;;
35522;SDS011;61478;50.820;4.330;2023-04-01T03:39:34;22.90;;;8.50;;
35522;SDS011;61478;50.820;4.330;2023-04-01T03:42:00;20.13;;;8.07;;
35522;SDS011;61478;50.820;4.330;2023-04-01T03:44:26;14.93;;;7.30;;
35522;SDS011;61478;50.820;4.330;2023-04-01T03:46:56;17.02;;;7.30;;
35522;SDS011;61478;50.820;4.330;2023-04-01T03:49:21;19.10;;;8.68;;
35522;SDS011;61478;50.820;4.330;2023-04-01T03:51:47;22.40;;;8.02;;
35522;SDS011;61478;50.820;4.330;2023-04-01T03:54:13;14.75;;;6.95;;
35522;SDS011;61478;50.820;4.330;2023-04-01T03:56:39;21.55;;;8.57;;
35522;SDS011;61478;50.820;4.330;2023-04-01T03:59:05;17.73;;;7.88;;
35522;SDS011;61478;50.820;4.330;2023-04-01T04:01:35;18.90;;;7.45;;
35522;SDS011;61478;50.820;4.330;2023-04-01T04:04:01;16.25;;;7.18;;
35522;SDS011;61478;50.820;4.330;2023-04-01T04:06:30;15.23;;;6.65;;
35522;SDS011;61478;50.820;4.330;2023-04-01T04:08:57;15.35;;;6.57;;
35522;SDS011;61478;50.820;4.330;2023-04-01T04:11:23;15.00;;;6.43;;
35522;SDS011;61478;50.820;4.330;2023-04-01T04:13:49;16.02;;;6.63;;
35522;SDS011;61478;50.820;4.330;2023-04-01T04:16:15;14.25;;;6.65;;
35522;SDS011;61478;50.820;4.330;2023-04-01T04:18:42;13.55;;;6.47;;
35522;SDS011;61478;50.820;4.330;2023-04-01T04:21:11;13.07;;;5.78;;
35522;SDS011;61478;50.820;4.330;2023-04-01T04:23:39;12.60;;;5.85;;
35522;SDS011;61478;50.820;4.330;2023-04-01T04:26:09;14.65;;;6.03;;
35522;SDS011;61478;50.820;4.330;2023-04-01T04:28:37;11.77;;;5.70;;
35522;SDS011;61478;50.820;4.330;2023-04-01T04:31:03;12.63;;;6.20;;
35522;SDS011;61478;50.820;4.330;2023-04-01T04:33:33;11.98;;;5.60;;
35522;SDS011;61478;50.820;4.330;2023-04-01T04:35:59;13.05;;;6.35;;
35522;SDS011;61478;50.820;4.330;2023-04-01T04:38:27;9.35;;;5.07;;
35522;SDS011;61478;50.820;4.330;2023-04-01T04:40:53;8.73;;;5.18;;
35522;SDS011;61478;50.820;4.330;2023-04-01T04:43:19;12.07;;;5.35;;
35522;SDS011;61478;50.820;4.330;2023-04-01T04:45:45;10.80;;;4.97;;
35522;SDS011;61478;50.820;4.330;2023-04-01T04:48:15;11.40;;;5.15;;
35522;SDS011;61478;50.820;4.330;2023-04-01T04:50:44;10.18;;;5.18;;
35522;SDS011;61478;50.820;4.330;2023-04-01T04:53:14;12.00;;;4.95;;
35522;SDS011;61478;50.820;4.330;2023-04-01T04:55:43;8.65;;;5.65;;
35522;SDS011;61478;50.820;4.330;2023-04-01T04:58:10;5.75;;;4.30;;
35522;SDS011;61478;50.820;4.330;2023-04-01T05:00:36;11.27;;;4.80;;
35522;SDS011;61478;50.820;4.330;2023-04-01T05:03:02;8.30;;;4.60;;
35522;SDS011;61478;50.820;4.330;2023-04-01T05:05:28;6.38;;;3.88;;
35522;SDS011;61478;50.820;4.330;2023-04-01T05:07:53;4.80;;;3.90;;
35522;SDS011;61478;50.820;4.330;2023-04-01T05:10:19;4.82;;;3.85;;
35522;SDS011;61478;50.820;4.330;2023-04-01T05:12:46;9.15;;;4.22;;
35522;SDS011;61478;50.820;4.330;2023-04-01T05:15:11;7.43;;;4.53;;
35522;SDS011;61478;50.820;4.330;2023-04-01T05:17:37;8.15;;;4.40;;
35522;SDS011;61478;50.820;4.330;2023-04-01T05:20:03;10.10;;;4.50;;
35522;SDS011;61478;50.820;4.330;2023-04-01T05:22:30;6.85;;;4.90;;
35522;SDS011;61478;50.820;4.330;2023-04-01T05:24:59;6.95;;;4.65;;
35522;SDS011;61478;50.820;4.330;2023-04-01T05:27:25;9.57;;;4.85;;
35522;SDS011;61478;50.820;4.330;2023-04-01T05:29:51;11.25;;;5.85;;
35522;SDS011;61478;50.820;4.330;2023-04-01T05:32:17;11.38;;;6.15;;
35522;SDS011;61478;50.820;4.330;2023-04-01T05:34:43;11.65;;;5.80;;
35522;SDS011;61478;50.820;4.330;2023-04-01T05:37:08;12.93;;;6.63;;
35522;SDS011;61478;50.820;4.330;2023-04-01T05:39:38;11.35;;;5.90;;
35522;SDS011;61478;50.820;4.330;2023-04-01T05:42:07;11.10;;;5.93;;
35522;SDS011;61478;50.820;4.330;2023-04-01T05:44:34;9.50;;;6.10;;
35522;SDS011;61478;50.820;4.330;2023-04-01T05:47:00;12.25;;;6.75;;
35522;SDS011;61478;50.820;4.330;2023-04-01T05:49:27;11.50;;;7.72;;
35522;SDS011;61478;50.820;4.330;2023-04-01T05:51:53;12.55;;;8.07;;
35522;SDS011;61478;50.820;4.330;2023-04-01T05:54:20;12.85;;;9.20;;
35522;SDS011;61478;50.820;4.330;2023-04-01T05:56:46;15.60;;;9.57;;
35522;SDS011;61478;50.820;4.330;2023-04-01T05:59:15;13.82;;;9.65;;
35522;SDS011;61478;50.820;4.330;2023-04-01T06:01:41;15.13;;;8.77;;
35522;SDS011;61478;50.820;4.330;2023-04-01T06:04:09;15.98;;;10.02;;
35522;SDS011;61478;50.820;4.330;2023-04-01T06:06:42;14.90;;;9.98;;
35522;SDS011;61478;50.820;4.330;2023-04-01T06:09:13;15.90;;;10.45;;
35522;SDS011;61478;50.820;4.330;2023-04-01T06:19:46;14.48;;;8.45;;
35522;SDS011;61478;50.820;4.330;2023-04-01T06:22:20;13.20;;;8.65;;
35522;SDS011;61478;50.820;4.330;2023-04-01T06:27:54;12.07;;;9.20;;
35522;SDS011;61478;50.820;4.330;2023-04-01T06:35:45;17.55;;;9.85;;
35522;SDS011;61478;50.820;4.330;2023-04-01T06:38:41;15.80;;;9.60;;
35522;SDS011;61478;50.820;4.330;2023-04-01T06:41:32;15.57;;;9.63;;
35522;SDS011;61478;50.820;4.330;2023-04-01T06:47:00;17.00;;;9.32;;
35522;SDS011;61478;50.820;4.330;2023-04-01T06:52:50;12.77;;;8.95;;
35522;SDS011;61478;50.820;4.330;2023-04-01T06:55:44;12.27;;;8.35;;
35522;SDS011;61478;50.820;4.330;2023-04-01T06:58:22;13.43;;;7.97;;
35522;SDS011;61478;50.820;4.330;2023-04-01T07:00:56;11.32;;;8.25;;
35522;SDS011;61478;50.820;4.330;2023-04-01T07:08:29;12.77;;;7.18;;
35522;SDS011;61478;50.820;4.330;2023-04-01T07:11:01;9.77;;;5.85;;
35522;SDS011;61478;50.820;4.330;2023-04-01T07:21:41;5.35;;;4.50;;
35522;SDS011;61478;50.820;4.330;2023-04-01T07:24:24;9.68;;;5.38;;
35522;SDS011;61478;50.820;4.330;2023-04-01T07:26:58;6.07;;;4.47;;
35522;SDS011;61478;50.820;4.330;2023-04-01T07:29:24;7.78;;;4.38;;
35522;SDS011;61478;50.820;4.330;2023-04-01T07:42:33;7.72;;;5.63;;
35522;SDS011;61478;50.820;4.330;2023-04-01T07:50:58;8.80;;;5.18;;
35522;SDS011;61478;50.820;4.330;2023-04-01T08:10:51;3.55;;;1.83;;
35522;SDS011;61478;50.820;4.330;2023-04-01T08:21:24;5.55;;;2.30;;
35522;SDS011;61478;50.820;4.330;2023-04-01T08:24:46;4.00;;;2.53;;
35522;SDS011;61478;50.820;4.330;2023-04-01T08:26:59;5.63;;;2.10;;
35522;SDS011;61478;50.820;4.330;2023-04-01T08:29:37;2.50;;;1.95;;
35522;SDS011;61478;50.820;4.330;2023-04-01T08:32:13;5.43;;;3.85;;
35522;SDS011;61478;50.820;4.330;2023-04-01T08:34:51;9.23;;;5.90;;
35522;SDS011;61478;50.820;4.330;2023-04-01T08:37:32;12.20;;;5.93;;
35522;SDS011;61478;50.820;4.330;2023-04-01T08:40:16;9.93;;;5.60;;
35522;SDS011;61478;50.820;4.330;2023-04-01T08:43:22;9.20;;;3.05;;
35522;SDS011;61478;50.820;4.330;2023-04-01T09:00:05;4.97;;;2.00;;
35522;SDS011;61478;50.820;4.330;2023-04-01T09:08:42;4.18;;;1.50;;
35522;SDS011;61478;50.820;4.330;2023-04-01T09:11:32;4.85;;;2.00;;
35522;SDS011;61478;50.820;4.330;2023-04-01T09:20:23;4.18;;;2.00;;
35522;SDS011;61478;50.820;4.330;2023-04-01T09:30:54;4.05;;;2.72;;
35522;SDS011;61478;50.820;4.330;2023-04-01T09:36:12;5.90;;;2.42;;
35522;SDS011;61478;50.820;4.330;2023-04-01T09:39:01;4.65;;;2.15;;
35522;SDS011;61478;50.820;4.330;2023-04-01T09:44:44;2.53;;;2.30;;
35522;SDS011;61478;50.820;4.330;2023-04-01T10:24:20;3.30;;;1.80;;
35522;SDS011;61478;50.820;4.330;2023-04-01T10:26:52;3.63;;;1.92;;
35522;SDS011;61478;50.820;4.330;2023-04-01T10:39:08;2.15;;;1.42;;
35522;SDS011;61478;50.820;4.330;2023-04-01T10:50:50;2.15;;;1.20;;
35522;SDS011;61478;50.820;4.330;2023-04-01T11:07:45;3.97;;;2.05;;
35522;SDS011;61478;50.820;4.330;2023-04-01T11:16:19;6.10;;;2.28;;
35522;SDS011;61478;50.820;4.330;2023-04-01T11:19:07;3.03;;;2.38;;
35522;SDS011;61478;50.820;4.330;2023-04-01T11:21:50;6.30;;;2.97;;
35522;SDS011;61478;50.820;4.330;2023-04-01T11:27:22;4.95;;;2.05;;
35522;SDS011;61478;50.820;4.330;2023-04-01T11:38:15;3.72;;;1.83;;
35522;SDS011;61478;50.820;4.330;2023-04-01T11:54:43;6.53;;;1.30;;
35522;SDS011;61478;50.820;4.330;2023-04-01T12:00:14;6.22;;;2.05;;
35522;SDS011;61478;50.820;4.330;2023-04-01T12:09:41;7.97;;;2.42;;
35522;SDS011;61478;50.820;4.330;2023-04-01T12:15:03;3.78;;;2.22;;
35522;SDS011;61478;50.820;4.330;2023-04-01T12:18:05;5.72;;;2.20;;
35522;SDS011;61478;50.820;4.330;2023-04-01T12:20:51;5.07;;;2.38;;
35522;SDS011;61478;50.820;4.330;2023-04-01T12:37:41;3.42;;;2.65;;
35522;SDS011;61478;50.820;4.330;2023-04-01T12:40:40;4.18;;;2.45;;
35522;SDS011;61478;50.820;4.330;2023-04-01T12:43:26;5.95;;;2.83;;
35522;SDS011;61478;50.820;4.330;2023-04-01T12:54:41;14.90;;;6.68;;
35522;SDS011;61478;50.820;4.330;2023-04-01T13:06:19;7.57;;;3.13;;
35522;SDS011;61478;50.820;4.330;2023-04-01T13:33:42;3.15;;;2.17;;
35522;SDS011;61478;50.820;4.330;2023-04-01T13:36:26;1.98;;;1.83;;
35522;SDS011;61478;50.820;4.330;2023-04-01T13:39:28;4.43;;;1.95;;
35522;SDS011;61478;50.820;4.330;2023-04-01T13:53:26;4.85;;;1.88;;
35522;SDS011;61478;50.820;4.330;2023-04-01T13:59:13;2.20;;;1.65;;
35522;SDS011;61478;50.820;4.330;2023-04-01T14:10:46;4.03;;;1.67;;
35522;SDS011;61478;50.820;4.330;2023-04-01T14:28:02;4.30;;;1.88;;
35522;SDS011;61478;50.820;4.330;2023-04-01T14:30:40;2.85;;;1.50;;
35522;SDS011;61478;50.820;4.330;2023-04-01T14:49:55;3.20;;;1.40;;
35522;SDS011;61478;50.820;4.330;2023-04-01T14:52:36;4.63;;;1.20;;
35522;SDS011;61478;50.820;4.330;2023-04-01T14:55:21;2.78;;;1.15;;
35522;SDS011;61478;50.820;4.330;2023-04-01T14:58:00;5.75;;;1.20;;
35522;SDS011;61478;50.820;4.330;2023-04-01T15:00:41;4.05;;;1.35;;
35522;SDS011;61478;50.820;4.330;2023-04-01T15:10:53;3.97;;;1.30;;
35522;SDS011;61478;50.820;4.330;2023-04-01T15:13:35;3.20;;;1.17;;
35522;SDS011;61478;50.820;4.330;2023-04-01T15:16:27;2.47;;;1.08;;
35522;SDS011;61478;50.820;4.330;2023-04-01T15:19:49;3.50;;;1.48;;
35522;SDS011;61478;50.820;4.330;2023-04-01T15:22:07;2.58;;;1.23;;
35522;SDS011;61478;50.820;4.330;2023-04-01T15:30:39;1.05;;;0.93;;
35522;SDS011;61478;50.820;4.330;2023-04-01T15:33:20;3.45;;;1.50;;
35522;SDS011;61478;50.820;4.330;2023-04-01T15:38:27;2.08;;;1.33;;
35522;SDS011;61478;50.820;4.330;2023-04-01T15:41:14;2.15;;;1.30;;
35522;SDS011;61478;50.820;4.330;2023-04-01T15:43:47;2.75;;;1.27;;
35522;SDS011;61478;50.820;4.330;2023-04-01T15:46:21;2.53;;;1.23;;
35522;SDS011;61478;50.820;4.330;2023-04-01T16:00:25;2.60;;;1.10;;
35522;SDS011;61478;50.820;4.330;2023-04-01T16:11:39;2.75;;;1.27;;
35522;SDS011;61478;50.820;4.330;2023-04-01T16:25:14;3.78;;;1.00;;
35522;SDS011;61478;50.820;4.330;2023-04-01T16:27:50;3.88;;;1.80;;
35522;SDS011;61478;50.820;4.330;2023-04-01T16:30:38;4.55;;;1.52;;
35522;SDS011;61478;50.820;4.330;2023-04-01T16:39:27;1.63;;;1.08;;
35522;SDS011;61478;50.820;4.330;2023-04-01T16:47:23;2.05;;;1.10;;
35522;SDS011;61478;50.820;4.330;2023-04-01T16:49:58;5.65;;;1.20;;
35522;SDS011;61478;50.820;4.330;2023-04-01T16:55:41;2.50;;;1.00;;
35522;SDS011;61478;50.820;4.330;2023-04-01T17:00:49;4.43;;;1.25;;
35522;SDS011;61478;50.820;4.330;2023-04-01T17:03:26;3.20;;;1.40;;
35522;SDS011;61478;50.820;4.330;2023-04-01T17:09:04;3.55;;;1.92;;
35522;SDS011;61478;50.820;4.330;2023-04-01T17:11:43;2.38;;;1.80;;
35522;SDS011;61478;50.820;4.330;2023-04-01T17:23:18;4.13;;;1.90;;
35522;SDS011;61478;50.820;4.330;2023-04-01T17:31:52;5.85;;;2.33;;
35522;SDS011;61478;50.820;4.330;2023-04-01T17:34:31;4.22;;;2.00;;
35522;SDS011;61478;50.820;4.330;2023-04-01T17:37:34;4.38;;;1.80;;
35522;SDS011;61478;50.820;4.330;2023-04-01T17:48:21;5.72;;;2.28;;
35522;SDS011;61478;50.820;4.330;2023-04-01T17:51:31;4.15;;;2.58;;
35522;SDS011;61478;50.820;4.330;2023-04-01T17:54:11;4.97;;;2.05;;
35522;SDS011;61478;50.820;4.330;2023-04-01T18:00:02;2.88;;;2.33;;
35522;SDS011;61478;50.820;4.330;2023-04-01T18:02:42;6.18;;;3.67;;
35522;SDS011;61478;50.820;4.330;2023-04-01T18:22:15;3.72;;;2.47;;
35522;SDS011;61478;50.820;4.330;2023-04-01T18:24:44;4.35;;;2.20;;
35522;SDS011;61478;50.820;4.330;2023-04-01T18:27:23;3.67;;;2.45;;
35522;SDS011;61478;50.820;4.330;2023-04-01T18:29:58;5.07;;;3.42;;
35522;SDS011;61478;50.820;4.330;2023-04-01T18:37:59;7.00;;;3.60;;
35522;SDS011;61478;50.820;4.330;2023-04-01T18:49:19;4.57;;;3.83;;
35522;SDS011;61478;50.820;4.330;2023-04-01T18:51:57;4.90;;;3.72;;
35522;SDS011;61478;50.820;4.330;2023-04-01T18:54:40;6.10;;;4.03;;
35522;SDS011;61478;50.820;4.330;2023-04-01T18:57:25;5.45;;;4.40;;
35522;SDS011;61478;50.820;4.330;2023-04-01T19:00:11;5.07;;;4.07;;
35522;SDS011;61478;50.820;4.330;2023-04-01T19:05:44;6.53;;;4.50;;
35522;SDS011;61478;50.820;4.330;2023-04-01T19:08:20;5.70;;;4.55;;
35522;SDS011;61478;50.820;4.330;2023-04-01T19:13:46;8.35;;;4.93;;
35522;SDS011;61478;50.820;4.330;2023-04-01T19:16:41;6.35;;;5.65;;
35522;SDS011;61478;50.820;4.330;2023-04-01T19:24:24;9.55;;;7.30;;
35522;SDS011;61478;50.820;4.330;2023-04-01T19:32:39;12.38;;;8.60;;
35522;SDS011;61478;50.820;4.330;2023-04-01T19:37:56;14.05;;;9.30;;
35522;SDS011;61478;50.820;4.330;2023-04-01T19:51:50;20.85;;;12.25;;
35522;SDS011;61478;50.820;4.330;2023-04-01T19:57:12;16.90;;;10.55;;
35522;SDS011;61478;50.820;4.330;2023-04-01T19:59:53;14.32;;;10.55;;
35522;SDS011;61478;50.820;4.330;2023-04-01T20:05:03;17.05;;;11.43;;
35522;SDS011;61478;50.820;4.330;2023-04-01T20:07:53;20.92;;;12.25;;
35522;SDS011;61478;50.820;4.330;2023-04-01T20:13:19;19.83;;;12.77;;
35522;SDS011;61478;50.820;4.330;2023-04-01T20:16:11;14.25;;;9.93;;
35522;SDS011;61478;50.820;4.330;2023-04-01T20:21:33;15.70;;;11.25;;
35522;SDS011;61478;50.820;4.330;2023-04-01T20:27:44;17.27;;;11.00;;
35522;SDS011;61478;50.820;4.330;2023-04-01T20:29:41;18.88;;;12.35;;
35522;SDS011;61478;50.820;4.330;2023-04-01T20:32:54;15.88;;;11.77;;
35522;SDS011;61478;50.820;4.330;2023-04-01T20:35:33;16.67;;;11.07;;
35522;SDS011;61478;50.820;4.330;2023-04-01T20:46:51;17.95;;;10.80;;
35522;SDS011;61478;50.820;4.330;2023-04-01T20:54:56;33.65;;;24.27;;
35522;SDS011;61478;50.820;4.330;2023-04-01T20:57:48;14.85;;;10.07;;
35522;SDS011;61478;50.820;4.330;2023-04-01T21:00:50;18.30;;;11.15;;
35522;SDS011;61478;50.820;4.330;2023-04-01T21:33:42;26.23;;;16.55;;
35522;SDS011;61478;50.820;4.330;2023-04-01T21:39:26;26.33;;;17.55;;
35522;SDS011;61478;50.820;4.330;2023-04-01T21:47:23;32.83;;;17.08;;
35522;SDS011;61478;50.820;4.330;2023-04-01T22:04:11;23.92;;;13.65;;
35522;SDS011;61478;50.820;4.330;2023-04-01T22:06:47;17.27;;;12.15;;
35522;SDS011;61478;50.820;4.330;2023-04-01T22:09:22;15.43;;;12.02;;
35522;SDS011;61478;50.820;4.330;2023-04-01T22:12:14;12.20;;;10.75;;
35522;SDS011;61478;50.820;4.330;2023-04-01T22:14:48;13.57;;;11.30;;
35522;SDS011;61478;50.820;4.330;2023-04-01T22:17:28;14.20;;;10.35;;
35522;SDS011;61478;50.820;4.330;2023-04-01T22:20:21;14.88;;;11.43;;
35522;SDS011;61478;50.820;4.330;2023-04-01T22:23:02;14.43;;;11.80;;
35522;SDS011;61478;50.820;4.330;2023-04-01T22:28:33;18.70;;;13.73;;
35522;SDS011;61478;50.820;4.330;2023-04-01T22:31:08;14.98;;;13.48;;
35522;SDS011;61478;50.820;4.330;2023-04-01T22:33:42;14.27;;;11.88;;
35522;SDS011;61478;50.820;4.330;2023-04-01T22:36:20;15.05;;;11.52;;
35522;SDS011;61478;50.820;4.330;2023-04-01T22:50:35;18.95;;;17.17;;
35522;SDS011;61478;50.820;4.330;2023-04-01T22:55:31;19.90;;;18.15;;
35522;SDS011;61478;50.820;4.330;2023-04-01T22:58:04;20.38;;;18.40;;
35522;SDS011;61478;50.820;4.330;2023-04-01T23:03:08;19.45;;;17.77;;
35522;SDS011;61478;50.820;4.330;2023-04-01T23:05:39;19.40;;;17.60;;
35522;SDS011;61478;50.820;4.330;2023-04-01T23:08:45;19.05;;;17.35;;
35522;SDS011;61478;50.820;4.330;2023-04-01T23:14:03;15.93;;;14.50;;
35522;SDS011;61478;50.820;4.330;2023-04-01T23:16:37;14.65;;;13.27;;
35522;SDS011;61478;50.820;4.330;2023-04-01T23:19:19;14.70;;;13.38;;
35522;SDS011;61478;50.820;4.330;2023-04-01T23:22:03;14.30;;;13.10;;
35522;SDS011;61478;50.820;4.330;2023-04-01T23:24:38;14.50;;;13.30;;
35522;SDS011;61478;50.820;4.330;2023-04-01T23:29:51;15.57;;;13.95;;
35522;SDS011;61478;50.820;4.330;2023-04-01T23:32:24;15.57;;;14.18;;
35522;SDS011;61478;50.820;4.330;2023-04-01T23:34:52;17.13;;;15.70;;
35522;SDS011;61478;50.820;4.330;2023-04-01T23:37:20;18.08;;;16.42;;
35522;SDS011;61478;50.820;4.330;2023-04-01T23:39:51;19.67;;;17.85;;
35522;SDS011;61478;50.820;4.330;2023-04-01T23:42:29;18.52;;;16.90;;
35522;SDS011;61478;50.820;4.330;2023-04-01T23:44:58;18.23;;;16.52;;
35522;SDS011;61478;50.820;4.330;2023-04-01T23:47:33;16.98;;;15.45;;
35522;SDS011;61478;50.820;4.330;2023-04-01T23:50:03;18.40;;;16.77;;
35522;SDS011;61478;50.820;4.330;2023-04-01T23:52:46;21.10;;;19.23;;
35522;SDS011;61478;50.820;4.330;2023-04-01T23:55:24;23.83;;;21.42;;
